Etusivu
METAR-TAF:

METAR-TAF

Lentoasemat :

Grand Turk, Turks- ja Caicossaaret

Leveyspiiri: 21-26-40N, Pituuspiiri: 071-08-32W, korkeus merenpinnasta: 4 m

METAR: puuttuu

Aika: 21:33 (02:33 UTC)

Sääennuste

Tämä raportti tehtiin 3 tuntia ja 18 minuuttia sitten, kello 23.15 UTC
Ennuste voimassa 24. päivästä klo 00 UTC - 24. päivään klo 24 UTC
Tuuli 3 kn etelästä/kaakosta
Näkyvyys 10 km tai enemmän
ei pilviä alle 1500 m:ssä eikä cumulonimbus-pilviä
From UTC
Tuuli 8 kn etelästä/lounaasta
Näkyvyys 10 km tai enemmän
Hajanaisia pilviä 2000 ft:n korkeudessa

TAF: MBGT 232315Z 2400/2424 16003KT 9999 CAVOK FM 241200 20008KT 9999 SCT020

Säähavainnot ja -ennusteet yli 4000 lentoasemalta (METAR- ja TAF-raportit).

Käytössä olevat sääasemat on merkitty karttaan keltaisilla ja punaisilla pisteillä.

Aseta hiiri pisteen päälle nähdäksesi sääaseman nimen.

Klikkaa sitten nähdäksesi säähavainnot ja -ennusteet.

Kartan vaihtaminen: klikkaa mustalla rastilla varustettuja vihreitä pisteitä, niin voit zoomata sisään; viivalla varustettua vihreää pistettä, niin voit zoomata ulos tai vihreitä nuolia, niin pääset viereisille kartoille.


METAR-TAF: